createdAt,value
2022-08-01T00:00:20.094Z,26.73
2022-08-01T00:02:52.972Z,25.57
2022-08-01T00:05:25.747Z,24.92
2022-08-01T00:07:58.626Z,23.98
2022-08-01T00:10:31.632Z,22.10
2022-08-01T00:13:04.814Z,26.20
2022-08-01T00:15:38.113Z,19.45
2022-08-01T00:18:10.928Z,20.80
2022-08-01T00:20:43.763Z,19.67
2022-08-01T00:23:16.713Z,16.85
2022-08-01T00:25:49.662Z,17.23
2022-08-01T00:28:22.370Z,18.02
2022-08-01T00:30:55.227Z,17.20
2022-08-01T00:33:28.168Z,16.65
2022-08-01T00:36:01.019Z,16.73
2022-08-01T00:38:34.228Z,17.17
2022-08-01T00:41:07.046Z,16.15
2022-08-01T00:43:39.995Z,17.57
2022-08-01T00:48:45.782Z,16.90
2022-08-01T00:51:19.611Z,18.67
2022-08-01T00:53:54.000Z,21.12
2022-08-01T00:56:29.502Z,15.10
2022-08-01T00:59:04.398Z,17.10
2022-08-01T01:01:39.992Z,16.32
2022-08-01T01:04:12.145Z,17.12
2022-08-01T01:06:58.527Z,15.72
2022-08-01T01:09:44.917Z,15.03
2022-08-01T01:12:28.673Z,15.70
2022-08-01T01:15:25.894Z,15.48
2022-08-01T01:18:11.314Z,16.45
2022-08-01T01:21:08.165Z,19.62
2022-08-01T01:24:17.029Z,18.42
2022-08-01T01:27:03.644Z,16.82
2022-08-01T01:30:00.516Z,15.25
2022-08-01T01:32:42.128Z,22.42
2022-08-01T01:35:19.702Z,15.55
2022-08-01T01:37:56.320Z,15.80
2022-08-01T01:40:29.407Z,13.55
2022-08-01T01:43:02.477Z,13.48
2022-08-01T01:45:36.242Z,13.03
2022-08-01T01:48:12.043Z,15.77
2022-08-01T01:50:47.520Z,16.97
2022-08-01T01:53:22.815Z,14.07
2022-08-01T01:56:00.309Z,15.83
2022-08-01T01:58:36.263Z,18.75
2022-08-01T02:01:14.517Z,14.60
2022-08-01T02:03:46.276Z,10.93
2022-08-01T02:06:19.517Z,15.65
2022-08-01T02:08:56.355Z,12.65
2022-08-01T02:11:30.283Z,13.10
2022-08-01T02:14:05.183Z,14.98
2022-08-01T02:16:40.226Z,13.93
2022-08-01T02:19:13.149Z,13.68
2022-08-01T02:22:01.929Z,14.63
2022-08-01T02:24:47.523Z,13.08
2022-08-01T02:27:25.265Z,13.30
2022-08-01T02:30:06.349Z,14.05
2022-08-01T02:32:46.975Z,19.50
2022-08-01T02:35:32.229Z,13.32
2022-08-01T02:38:07.790Z,11.22
2022-08-01T02:40:44.156Z,14.35
2022-08-01T02:43:20.796Z,11.65
2022-08-01T02:45:58.261Z,16.67
2022-08-01T02:48:34.614Z,13.62
2022-08-01T02:51:08.139Z,12.78
2022-08-01T02:53:44.540Z,18.45
2022-08-01T02:56:17.663Z,14.23
2022-08-01T02:58:51.422Z,16.73
2022-08-01T03:01:27.827Z,17.37
2022-08-01T03:04:01.156Z,17.05
2022-08-01T03:06:35.911Z,15.83
2022-08-01T03:09:09.822Z,13.98
2022-08-01T03:11:44.715Z,16.25
2022-08-01T03:14:18.184Z,13.95
2022-08-01T03:16:52.542Z,14.90
2022-08-01T03:19:27.870Z,16.87
2022-08-01T03:22:01.721Z,17.52
2022-08-01T03:24:34.767Z,12.82
2022-08-01T03:27:09.629Z,13.90
2022-08-01T03:29:45.732Z,14.47
2022-08-01T03:32:19.889Z,13.98
2022-08-01T03:37:31.791Z,17.10
2022-08-01T03:40:11.532Z,19.40
2022-08-01T03:42:50.564Z,19.92
2022-08-01T03:45:29.764Z,17.77
2022-08-01T03:48:05.324Z,15.50
2022-08-01T03:50:41.655Z,17.85
2022-08-01T03:53:15.660Z,16.00
2022-08-01T03:55:48.493Z,13.58
2022-08-01T03:58:21.413Z,18.90
2022-08-01T04:00:54.879Z,16.60
2022-08-01T04:03:28.090Z,16.80
2022-08-01T04:06:01.269Z,19.30
2022-08-01T04:08:39.872Z,16.60
2022-08-01T04:11:13.580Z,18.65
2022-08-01T04:13:46.657Z,16.93
2022-08-01T04:16:20.009Z,15.72
2022-08-01T04:18:53.056Z,15.78
2022-08-01T04:21:32.127Z,17.77
2022-08-01T04:24:18.729Z,15.85
2022-08-01T04:26:53.520Z,15.65
2022-08-01T04:29:27.414Z,16.93
2022-08-01T04:32:01.560Z,15.10
2022-08-01T04:34:35.310Z,16.17
2022-08-01T04:37:09.846Z,14.35
2022-08-01T04:39:50.177Z,13.43
2022-08-01T04:42:25.046Z,14.25
2022-08-01T04:44:54.339Z,21.93
2022-08-01T04:47:28.904Z,13.50
2022-08-01T04:50:03.043Z,16.50
2022-08-01T04:52:39.261Z,15.98
2022-08-01T04:55:13.567Z,15.08
2022-08-01T04:57:48.943Z,15.45
2022-08-01T05:00:21.911Z,11.83
2022-08-01T05:02:55.043Z,16.33
2022-08-01T05:05:27.798Z,15.88
2022-08-01T05:08:01.779Z,12.07
2022-08-01T05:15:42.373Z,21.93
2022-08-01T05:18:15.333Z,20.12
2022-08-01T05:20:48.599Z,15.72
2022-08-01T05:23:41.880Z,15.27
2022-08-01T05:25:57.679Z,15.58
2022-08-01T05:28:30.037Z,16.97
2022-08-01T05:31:02.963Z,17.25
2022-08-01T05:33:36.167Z,22.98
2022-08-01T05:36:09.205Z,18.15
2022-08-01T05:38:42.162Z,17.20
2022-08-01T05:41:15.217Z,18.35
2022-08-01T05:43:48.126Z,16.35
2022-08-01T05:46:20.893Z,11.30
2022-08-01T05:48:55.378Z,16.45
2022-08-01T05:51:28.784Z,15.55
2022-08-01T05:54:02.471Z,13.28
2022-08-01T05:56:36.783Z,14.10
2022-08-01T05:59:09.600Z,15.05
2022-08-01T06:01:42.785Z,15.77
2022-08-01T06:04:17.471Z,16.57
2022-08-01T06:06:50.381Z,21.45
2022-08-01T06:09:23.161Z,14.35
2022-08-01T06:11:55.896Z,18.52
2022-08-01T06:14:28.796Z,19.73
2022-08-01T06:17:01.625Z,18.70
2022-08-01T06:19:34.500Z,20.75
2022-08-01T06:22:07.533Z,20.00
2022-08-01T06:24:40.748Z,21.90
2022-08-01T06:29:51.255Z,20.95
2022-08-01T06:32:28.056Z,16.97
2022-08-01T06:35:00.951Z,19.17
2022-08-01T06:37:34.853Z,16.77
2022-08-01T06:40:16.879Z,14.25
2022-08-01T06:42:48.486Z,13.22
2022-08-01T06:45:22.887Z,20.48
2022-08-01T06:47:56.184Z,16.02
2022-08-01T06:50:28.985Z,12.58
2022-08-01T06:53:02.213Z,13.50
2022-08-01T06:55:35.061Z,10.50
2022-08-01T06:58:07.923Z,10.13
2022-08-01T07:00:40.832Z,15.90
2022-08-01T07:03:13.578Z,11.28
2022-08-01T07:05:46.605Z,15.35
2022-08-01T07:08:19.491Z,14.60
2022-08-01T07:10:52.288Z,19.67
2022-08-01T07:13:36.778Z,15.23
2022-08-01T07:16:00.820Z,11.40
2022-08-01T07:18:33.888Z,15.67
2022-08-01T07:21:06.813Z,15.60
2022-08-01T07:23:45.830Z,16.27
2022-08-01T07:26:15.617Z,11.53
2022-08-01T07:28:48.651Z,14.87
2022-08-01T07:31:21.823Z,15.95
2022-08-01T07:33:54.710Z,16.53
2022-08-01T07:36:27.587Z,10.78
2022-08-01T07:39:00.380Z,12.50
2022-08-01T07:42:05.458Z,13.65
2022-08-01T07:44:08.507Z,13.30
2022-08-01T07:46:41.535Z,13.18
2022-08-01T07:49:14.873Z,9.78
2022-08-01T07:52:03.935Z,17.60
2022-08-01T07:54:24.298Z,11.38
2022-08-01T07:56:59.201Z,13.58
2022-08-01T07:59:32.064Z,22.48
2022-08-01T08:02:05.375Z,22.62
2022-08-01T08:04:38.463Z,19.80
2022-08-01T08:07:12.188Z,21.02
2022-08-01T08:09:45.250Z,16.65
2022-08-01T08:12:28.351Z,13.38
2022-08-01T08:14:54.582Z,23.02
2022-08-01T08:17:28.051Z,20.62
2022-08-01T08:22:33.641Z,20.08
2022-08-01T08:25:07.773Z,17.45
2022-08-01T08:27:40.909Z,18.92
2022-08-01T08:30:14.161Z,21.33
2022-08-01T08:32:46.996Z,26.75
2022-08-01T08:35:23.274Z,29.87
2022-08-01T08:38:01.615Z,32.80
2022-08-01T08:40:36.565Z,35.00
2022-08-01T08:43:11.079Z,26.37
2022-08-01T08:45:59.702Z,27.50
2022-08-01T08:48:18.868Z,27.40
2022-08-01T08:50:53.576Z,22.70
2022-08-01T08:53:34.528Z,31.50
2022-08-01T08:56:02.990Z,27.58
2022-08-01T08:58:38.970Z,27.32
2022-08-01T09:01:11.808Z,20.60
2022-08-01T09:03:44.616Z,14.87
2022-08-01T09:06:17.737Z,17.80
2022-08-01T09:08:51.034Z,18.67
2022-08-01T09:11:23.843Z,17.37
2022-08-01T09:14:16.284Z,20.68
2022-08-01T09:16:49.257Z,17.60
2022-08-01T09:19:40.299Z,13.18
2022-08-01T09:22:04.982Z,14.30
2022-08-01T09:24:38.908Z,15.30
2022-08-01T09:27:25.104Z,13.35
2022-08-01T09:30:02.258Z,10.18
2022-08-01T09:32:36.837Z,15.03
2022-08-01T09:35:30.239Z,13.68
2022-08-01T09:38:23.441Z,14.83
2022-08-01T09:40:59.267Z,18.17
2022-08-01T09:43:33.502Z,15.68
2022-08-01T09:46:13.882Z,17.27
2022-08-01T09:49:07.421Z,14.30
2022-08-01T09:52:00.090Z,15.63
2022-08-01T09:54:15.923Z,16.75
2022-08-01T09:56:49.137Z,16.32
2022-08-01T09:59:26.385Z,22.48
2022-08-01T10:01:57.741Z,17.77
2022-08-01T10:04:30.715Z,15.37
2022-08-01T10:07:10.903Z,12.50
2022-08-01T10:09:46.144Z,11.70
2022-08-01T10:14:56.863Z,13.55
2022-08-01T10:17:51.044Z,10.98
2022-08-01T10:20:06.064Z,13.15
2022-08-01T10:22:41.777Z,23.15
2022-08-01T10:25:16.281Z,26.87
2022-08-01T10:27:58.670Z,34.65
2022-08-01T10:30:31.995Z,72.80
2022-08-01T10:33:05.148Z,49.42
2022-08-01T10:35:46.711Z,19.75
2022-08-01T10:38:18.353Z,11.83
2022-08-01T10:40:53.061Z,11.03
2022-08-01T10:43:26.300Z,11.93
2022-08-01T10:45:59.562Z,10.65
2022-08-01T10:51:17.536Z,12.45
2022-08-01T10:53:50.771Z,12.65
2022-08-01T10:56:26.957Z,13.00
2022-08-01T10:59:11.719Z,12.50
2022-08-01T11:01:44.862Z,15.85
2022-08-01T11:04:18.081Z,11.60
2022-08-01T11:07:07.381Z,11.22
2022-08-01T11:09:52.107Z,11.53
2022-08-01T11:12:26.310Z,12.50
2022-08-01T11:15:11.060Z,12.00
2022-08-01T11:17:54.679Z,12.13
2022-08-01T11:20:34.061Z,13.90
2022-08-01T11:23:13.998Z,11.33
2022-08-01T11:26:05.422Z,12.80
2022-08-01T11:28:34.946Z,11.38
2022-08-01T11:31:14.070Z,9.60
2022-08-01T11:33:51.818Z,7.50
2022-08-01T11:36:55.849Z,10.98
2022-08-01T11:39:13.636Z,9.88
2022-08-01T11:41:45.259Z,11.03
2022-08-01T11:44:26.111Z,13.72
2022-08-01T11:47:11.550Z,12.10
2022-08-01T11:49:52.424Z,7.92
2022-08-01T11:52:34.571Z,10.48
2022-08-01T11:55:12.003Z,11.78
2022-08-01T11:57:48.551Z,10.32
2022-08-01T12:00:23.880Z,8.68
2022-08-01T12:03:10.118Z,9.50
2022-08-01T12:05:46.178Z,9.70
2022-08-01T12:08:29.777Z,9.78
2022-08-01T12:11:03.697Z,12.20
2022-08-01T12:13:45.969Z,8.45
2022-08-01T12:16:18.755Z,10.35
2022-08-01T12:18:53.882Z,12.13
2022-08-01T12:24:05.147Z,9.35
2022-08-01T12:26:45.048Z,10.93
2022-08-01T12:29:37.861Z,8.45
2022-08-01T12:32:32.789Z,8.08
2022-08-01T12:35:18.428Z,9.13
2022-08-01T12:37:54.376Z,9.68
2022-08-01T12:40:31.331Z,10.93
2022-08-01T12:43:09.726Z,8.13
2022-08-01T12:45:56.347Z,10.28
2022-08-01T12:48:21.839Z,7.92
2022-08-01T12:50:55.420Z,10.32
2022-08-01T12:53:40.147Z,8.18
2022-08-01T12:56:03.254Z,7.75
2022-08-01T12:58:37.337Z,7.87
2022-08-01T13:01:14.520Z,7.67
2022-08-01T13:04:07.900Z,7.17
2022-08-01T13:06:40.975Z,7.60
2022-08-01T13:09:14.909Z,9.15
2022-08-01T13:14:32.363Z,10.82
2022-08-01T13:17:05.318Z,8.63
2022-08-01T13:19:50.558Z,8.03
2022-08-01T13:22:23.489Z,8.35
2022-08-01T13:25:01.031Z,8.40
2022-08-01T13:27:34.077Z,9.78
2022-08-01T13:30:23.088Z,9.00
2022-08-01T13:33:02.856Z,7.37
2022-08-01T13:35:36.061Z,6.40
2022-08-01T13:38:08.929Z,9.70
2022-08-01T13:40:41.768Z,7.53
2022-08-01T13:43:14.938Z,10.40
2022-08-01T13:45:47.895Z,6.73
2022-08-01T13:48:21.230Z,7.75
2022-08-01T13:51:13.540Z,7.08
2022-08-01T13:53:30.653Z,6.55
2022-08-01T13:56:03.503Z,10.00
2022-08-01T13:58:36.611Z,10.25
2022-08-01T14:01:10.166Z,9.00
2022-08-01T14:03:43.010Z,14.03
2022-08-01T14:06:17.537Z,7.40
2022-08-01T14:08:51.432Z,8.80
2022-08-01T14:11:24.732Z,10.82
2022-08-01T14:13:57.717Z,11.63
2022-08-01T14:16:30.561Z,12.03
2022-08-01T14:19:03.934Z,6.55
2022-08-01T14:21:37.090Z,7.62
2022-08-01T14:24:10.967Z,6.85
2022-08-01T14:26:44.033Z,8.85
2022-08-01T14:29:16.921Z,9.13
2022-08-01T14:31:49.779Z,10.37
2022-08-01T14:34:24.053Z,10.77
2022-08-01T14:36:57.003Z,10.48
2022-08-01T14:39:30.683Z,7.33
2022-08-01T14:42:03.730Z,6.10
2022-08-01T14:44:44.960Z,8.30
2022-08-01T14:47:16.236Z,6.55
2022-08-01T14:49:48.801Z,5.78
2022-08-01T14:52:21.615Z,7.63
2022-08-01T14:54:54.492Z,9.85
2022-08-01T14:57:27.607Z,6.77
2022-08-01T15:00:00.881Z,10.75
2022-08-01T15:02:34.177Z,9.05
2022-08-01T15:05:08.472Z,10.80
2022-08-01T15:07:51.536Z,12.88
2022-08-01T15:10:17.329Z,5.92
2022-08-01T15:12:50.851Z,6.80
2022-08-01T15:17:55.730Z,6.90
2022-08-01T15:20:28.600Z,5.47
2022-08-01T15:23:01.643Z,7.85
2022-08-01T15:25:41.878Z,6.07
2022-08-01T15:28:09.735Z,7.60
2022-08-01T15:30:42.792Z,8.80
2022-08-01T15:33:15.557Z,11.35
2022-08-01T15:35:48.486Z,8.03
2022-08-01T15:38:23.047Z,10.03
2022-08-01T15:40:55.766Z,7.20
2022-08-01T15:43:28.710Z,6.65
2022-08-01T15:46:02.840Z,8.85
2022-08-01T15:48:39.990Z,6.75
2022-08-01T15:51:10.610Z,6.22
2022-08-01T15:53:43.786Z,7.47
2022-08-01T15:56:16.924Z,11.80
2022-08-01T15:58:50.039Z,7.97
2022-08-01T16:01:22.919Z,7.20
2022-08-01T16:03:57.627Z,10.50
2022-08-01T16:06:30.889Z,8.08
2022-08-01T16:09:04.295Z,8.45
2022-08-01T16:11:43.109Z,11.55
2022-08-01T16:14:13.255Z,11.50
2022-08-01T16:16:46.065Z,9.30
2022-08-01T16:19:20.761Z,9.60
2022-08-01T16:21:53.707Z,9.88
2022-08-01T16:24:28.211Z,8.87
2022-08-01T16:27:01.057Z,8.80
2022-08-01T16:29:35.768Z,7.90
2022-08-01T16:32:24.566Z,7.08
2022-08-01T16:34:46.965Z,10.05
2022-08-01T16:37:18.799Z,10.98
2022-08-01T16:39:51.627Z,8.35
2022-08-01T16:42:27.589Z,9.30
2022-08-01T16:44:59.900Z,6.87
2022-08-01T16:47:32.931Z,8.05
2022-08-01T16:50:06.834Z,8.60
2022-08-01T16:52:42.131Z,8.13
2022-08-01T16:55:14.955Z,11.38
2022-08-01T16:57:47.896Z,9.27
2022-08-01T17:00:22.792Z,10.20
2022-08-01T17:02:55.782Z,15.68
2022-08-01T17:05:29.624Z,16.67
2022-08-01T17:08:02.868Z,13.70
2022-08-01T17:10:36.746Z,17.50
2022-08-01T17:15:43.109Z,15.72
2022-08-01T17:18:16.095Z,16.25
2022-08-01T17:20:50.568Z,13.38
2022-08-01T17:25:55.902Z,18.45
2022-08-01T17:28:28.839Z,19.70
2022-08-01T17:31:01.993Z,22.27
2022-08-01T17:33:45.885Z,23.90
2022-08-01T17:36:10.134Z,22.07
2022-08-01T17:38:43.243Z,17.32
2022-08-01T17:41:16.140Z,13.78
2022-08-01T17:43:49.194Z,17.27
2022-08-01T17:46:22.031Z,19.60
2022-08-01T17:48:55.174Z,15.13
2022-08-01T17:51:27.921Z,16.63
2022-08-01T17:54:00.757Z,14.93
2022-08-01T17:56:38.582Z,17.32
2022-08-01T17:59:08.670Z,17.60
2022-08-01T18:01:45.184Z,27.90
2022-08-01T18:04:16.071Z,23.70
2022-08-01T18:06:58.911Z,16.10
2022-08-01T18:09:23.965Z,20.32
2022-08-01T18:11:56.708Z,21.37
2022-08-01T18:14:40.264Z,42.15
2022-08-01T18:17:04.899Z,42.70
2022-08-01T18:19:39.504Z,35.40
2022-08-01T18:22:28.949Z,24.40
2022-08-01T18:24:47.532Z,26.57
2022-08-01T18:27:20.379Z,20.48
2022-08-01T18:29:53.091Z,20.05
2022-08-01T18:32:26.013Z,16.12
2022-08-01T18:34:59.559Z,23.83
2022-08-01T18:37:33.282Z,16.62
2022-08-01T18:40:08.420Z,17.60
2022-08-01T18:42:41.886Z,18.40
2022-08-01T18:45:15.159Z,14.68
2022-08-01T18:47:48.678Z,17.12
2022-08-01T18:50:21.489Z,17.30
2022-08-01T18:52:56.374Z,21.05
2022-08-01T18:55:29.203Z,18.67
2022-08-01T18:58:02.067Z,18.37
2022-08-01T19:00:34.993Z,19.52
2022-08-01T19:03:08.039Z,20.65
2022-08-01T19:05:41.297Z,25.90
2022-08-01T19:08:14.296Z,20.20
2022-08-01T19:10:47.218Z,16.75
2022-08-01T19:13:20.977Z,27.82
2022-08-01T19:15:53.829Z,17.07
2022-08-01T19:18:27.819Z,25.68
2022-08-01T19:21:02.573Z,19.52
2022-08-01T19:23:54.453Z,20.65
2022-08-01T19:26:28.463Z,15.85
2022-08-01T19:29:13.048Z,14.28
2022-08-01T19:31:49.051Z,13.70
2022-08-01T19:34:26.699Z,17.37
2022-08-01T19:37:00.117Z,15.55
2022-08-01T19:39:33.134Z,18.15
2022-08-01T19:42:06.144Z,18.05
2022-08-01T19:44:40.048Z,12.58
2022-08-01T19:47:14.422Z,15.43
2022-08-01T19:49:47.787Z,14.25
2022-08-01T19:52:23.970Z,11.85
2022-08-01T19:54:58.230Z,16.85
2022-08-01T20:00:05.016Z,13.25
2022-08-01T20:02:39.466Z,16.90
2022-08-01T20:05:13.100Z,16.07
2022-08-01T20:07:47.244Z,16.75
2022-08-01T20:10:24.610Z,20.02
2022-08-01T20:12:59.130Z,16.23
2022-08-01T20:15:32.086Z,16.30
2022-08-01T20:18:05.086Z,16.75
2022-08-01T20:20:39.400Z,16.67
2022-08-01T20:25:49.800Z,15.80
2022-08-01T20:28:29.131Z,13.15
2022-08-01T20:31:05.825Z,12.68
2022-08-01T20:33:45.367Z,13.50
2022-08-01T20:36:25.867Z,13.32
2022-08-01T20:38:58.299Z,11.05
2022-08-01T20:41:31.442Z,15.10
2022-08-01T20:44:05.886Z,13.05
2022-08-01T20:46:40.412Z,12.28
2022-08-01T20:49:14.610Z,13.60
2022-08-01T20:54:21.783Z,15.25
2022-08-01T20:57:05.040Z,11.60
2022-08-01T20:59:55.515Z,11.97
2022-08-01T21:02:58.955Z,15.28
2022-08-01T21:05:35.703Z,13.40
2022-08-01T21:08:27.306Z,16.95
2022-08-01T21:11:01.033Z,16.73
2022-08-01T21:13:49.406Z,12.35
2022-08-01T21:16:30.477Z,13.53
2022-08-01T21:19:21.654Z,14.13
2022-08-01T21:21:53.147Z,13.80
2022-08-01T21:24:30.123Z,14.83
2022-08-01T21:27:03.680Z,15.63
2022-08-01T21:29:37.033Z,14.00
2022-08-01T21:32:13.166Z,16.90
2022-08-01T21:34:48.676Z,12.10
2022-08-01T21:37:21.613Z,13.53
2022-08-01T21:39:54.851Z,13.25
2022-08-01T21:42:29.815Z,13.47
2022-08-01T21:45:04.936Z,13.53
2022-08-01T21:47:39.339Z,12.05
2022-08-01T21:50:12.098Z,13.45
2022-08-01T21:52:50.468Z,14.13
2022-08-01T21:55:36.061Z,13.68
2022-08-01T21:58:16.745Z,11.65
2022-08-01T22:00:54.417Z,11.75
2022-08-01T22:03:31.744Z,11.60
2022-08-01T22:06:06.097Z,11.93
2022-08-01T22:08:54.717Z,11.55
2022-08-01T22:11:31.501Z,13.20
2022-08-01T22:14:08.255Z,10.40
2022-08-01T22:16:41.836Z,10.20
2022-08-01T22:19:43.039Z,13.17
2022-08-01T22:21:49.813Z,10.43
2022-08-01T22:24:23.682Z,10.77
2022-08-01T22:26:57.591Z,10.35
2022-08-01T22:29:30.726Z,12.70
2022-08-01T22:32:04.055Z,12.17
2022-08-01T22:34:36.789Z,12.73
2022-08-01T22:37:14.821Z,12.05
2022-08-01T22:39:47.808Z,10.80
2022-08-01T22:42:28.163Z,17.57
2022-08-01T22:45:08.215Z,12.47
2022-08-01T22:48:06.865Z,13.88
2022-08-01T22:50:43.704Z,11.95
2022-08-01T22:53:58.123Z,11.18
2022-08-01T22:56:33.626Z,12.05
2022-08-01T22:59:11.072Z,14.78
2022-08-01T23:01:50.860Z,12.55
2022-08-01T23:04:33.397Z,11.78
2022-08-01T23:07:06.676Z,11.83
2022-08-01T23:09:54.361Z,12.00
2022-08-01T23:12:15.291Z,10.88
2022-08-01T23:14:48.483Z,11.53
2022-08-01T23:17:27.332Z,12.15
2022-08-01T23:19:58.436Z,16.32
2022-08-01T23:22:36.795Z,13.70
2022-08-01T23:25:15.538Z,14.75
2022-08-01T23:27:51.884Z,14.98
2022-08-01T23:30:33.861Z,13.15
2022-08-01T23:33:06.792Z,12.28
2022-08-01T23:35:39.762Z,16.70
2022-08-01T23:38:14.219Z,13.90
2022-08-01T23:40:47.159Z,12.55
2022-08-01T23:43:19.929Z,12.15
2022-08-01T23:46:03.265Z,11.48
2022-08-01T23:48:27.501Z,13.00
2022-08-01T23:51:00.389Z,14.70
2022-08-01T23:53:35.941Z,15.53
2022-08-01T23:56:08.860Z,13.68
2022-08-01T23:58:41.615Z,12.82
